createdAt,value
2024-03-26T00:00:02.448Z,3.39
2024-03-26T00:16:01.822Z,3.06
2024-03-26T00:31:03.503Z,2.78
2024-03-26T00:46:03.951Z,2.5
2024-03-26T01:00:04.736Z,2.28
2024-03-26T01:16:05.730Z,2.06
2024-03-26T01:31:02.041Z,2
2024-03-26T01:46:01.893Z,1.89
2024-03-26T02:00:02.557Z,1.72
2024-03-26T02:16:03.255Z,1.56
2024-03-26T02:31:04.081Z,1.39
2024-03-26T02:46:04.429Z,1.22
2024-03-26T03:00:05.208Z,1.11
2024-03-26T03:16:06.241Z,1.06
2024-03-26T03:31:02.087Z,1.06
2024-03-26T03:46:02.631Z,1.17
2024-03-26T04:00:03.378Z,1.28
2024-03-26T04:16:03.989Z,1.33
2024-03-26T04:31:04.819Z,1.39
2024-03-26T04:46:05.355Z,1.44
2024-03-26T05:00:01.477Z,1.61
2024-03-26T05:16:05.472Z,1.61
2024-03-26T05:31:02.513Z,1.83
2024-03-26T05:46:03.467Z,2.11
2024-03-26T06:00:04.066Z,2.22
2024-03-26T06:16:04.765Z,2.56
2024-03-26T06:31:05.250Z,2.83
2024-03-26T06:46:06.229Z,3.33
2024-03-26T07:00:01.858Z,3.89
2024-03-26T07:16:02.460Z,4.89
2024-03-26T07:31:03.180Z,6.33
2024-03-26T07:46:03.584Z,7.5
2024-03-26T08:00:03.960Z,8.56
2024-03-26T08:16:04.689Z,9.33
2024-03-26T08:31:05.463Z,10.06
2024-03-26T08:46:06.419Z,11.17
2024-03-26T09:00:01.847Z,12
2024-03-26T09:16:02.222Z,12.89
2024-03-26T09:31:02.975Z,13.06
2024-03-26T09:46:03.344Z,12.94
2024-03-26T10:00:04.217Z,13.72
2024-03-26T10:16:05.013Z,14.44
2024-03-26T10:31:05.693Z,14.28
2024-03-26T10:46:07.936Z,14.11
2024-03-26T11:00:02.117Z,13.72
2024-03-26T11:16:02.633Z,13.83
2024-03-26T11:31:03.236Z,14.22
2024-03-26T11:46:03.551Z,14.17
2024-03-26T12:00:04.046Z,14.06
2024-03-26T12:16:04.999Z,14.61
2024-03-26T12:31:05.579Z,14.61
2024-03-26T12:46:01.378Z,14.89
2024-03-26T13:00:02.620Z,14.5
2024-03-26T13:16:03.275Z,14.22
2024-03-26T13:31:04.151Z,14
2024-03-26T13:46:04.642Z,13.72
2024-03-26T14:00:04.974Z,13.39
2024-03-26T14:16:06.058Z,13.17
2024-03-26T14:31:01.911Z,13.06
2024-03-26T14:46:02.373Z,12.78
2024-03-26T15:00:03.244Z,12.22
2024-03-26T15:16:14.623Z,11.89
2024-03-26T15:31:04.553Z,11.78
2024-03-26T15:46:04.803Z,11.78
2024-03-26T16:00:05.446Z,11.83
2024-03-26T16:16:04.053Z,11.83
2024-03-26T16:31:01.718Z,11.83
2024-03-26T16:46:02.845Z,11.83
2024-03-26T17:00:03.371Z,11.61
2024-03-26T17:16:01.334Z,11.22
2024-03-26T17:31:04.675Z,10.83
2024-03-26T17:46:05.292Z,10.56
2024-03-26T18:00:06.053Z,10.33
2024-03-26T18:16:02.047Z,10.06
2024-03-26T18:31:02.531Z,9.89
2024-03-26T18:46:03.136Z,9.67
2024-03-26T19:00:03.871Z,9.5
2024-03-26T19:16:04.418Z,9.33
2024-03-26T19:31:05.015Z,9.22
2024-03-26T19:46:05.934Z,9.06
2024-03-26T20:00:01.882Z,8.83
2024-03-26T20:16:02.932Z,8.44
2024-03-26T20:31:12.027Z,8.06
2024-03-26T20:46:04.188Z,7.61
2024-03-26T21:00:04.861Z,7.33
2024-03-26T21:16:05.774Z,7.17
2024-03-26T21:31:01.507Z,7
2024-03-26T21:46:01.916Z,6.89
2024-03-26T22:00:02.702Z,6.83
2024-03-26T22:16:03.377Z,6.89
2024-03-26T22:31:03.411Z,7
2024-03-26T22:46:04.890Z,7
2024-03-26T23:00:05.349Z,7.06
2024-03-26T23:16:00.506Z,7
2024-03-26T23:31:01.653Z,7.06
2024-03-26T23:46:02.572Z,7
